sensor_id;sensor_type;location;lat;lon;timestamp;temperature;humidity
14411;DHT22;7290;50.854;4.354;2022-12-07T00:00:44;7.10;99.90
14411;DHT22;7290;50.854;4.354;2022-12-07T00:03:09;7.20;99.90
14411;DHT22;7290;50.854;4.354;2022-12-07T00:05:36;7.10;99.90
14411;DHT22;7290;50.854;4.354;2022-12-07T00:08:02;7.20;99.90
14411;DHT22;7290;50.854;4.354;2022-12-07T00:10:29;7.20;99.90
14411;DHT22;7290;50.854;4.354;2022-12-07T00:12:55;7.00;99.90
14411;DHT22;7290;50.854;4.354;2022-12-07T00:15:21;6.90;99.90
14411;DHT22;7290;50.854;4.354;2022-12-07T00:17:47;6.90;99.90
14411;DHT22;7290;50.854;4.354;2022-12-07T00:20:13;6.70;99.90
14411;DHT22;7290;50.854;4.354;2022-12-07T00:22:39;6.60;99.90
14411;DHT22;7290;50.854;4.354;2022-12-07T00:25:06;6.70;99.90
14411;DHT22;7290;50.854;4.354;2022-12-07T00:27:32;6.60;99.90
14411;DHT22;7290;50.854;4.354;2022-12-07T00:29:58;6.60;99.90
14411;DHT22;7290;50.854;4.354;2022-12-07T00:32:24;6.90;99.90
14411;DHT22;7290;50.854;4.354;2022-12-07T00:34:50;6.90;99.90
14411;DHT22;7290;50.854;4.354;2022-12-07T00:37:16;6.70;99.90
14411;DHT22;7290;50.854;4.354;2022-12-07T00:39:43;6.70;99.90
14411;DHT22;7290;50.854;4.354;2022-12-07T00:42:09;6.70;99.90
14411;DHT22;7290;50.854;4.354;2022-12-07T00:44:35;6.90;99.90
14411;DHT22;7290;50.854;4.354;2022-12-07T00:47:01;6.90;99.90
14411;DHT22;7290;50.854;4.354;2022-12-07T00:49:27;6.80;99.90
14411;DHT22;7290;50.854;4.354;2022-12-07T00:51:53;6.70;99.90
14411;DHT22;7290;50.854;4.354;2022-12-07T00:54:19;6.50;99.90
14411;DHT22;7290;50.854;4.354;2022-12-07T00:56:46;6.40;99.90
14411;DHT22;7290;50.854;4.354;2022-12-07T00:59:13;6.40;99.90
14411;DHT22;7290;50.854;4.354;2022-12-07T01:01:39;6.40;99.90
14411;DHT22;7290;50.854;4.354;2022-12-07T01:04:05;6.40;99.90
14411;DHT22;7290;50.854;4.354;2022-12-07T01:06:32;6.50;99.90
14411;DHT22;7290;50.854;4.354;2022-12-07T01:08:59;6.40;99.90
14411;DHT22;7290;50.854;4.354;2022-12-07T01:11:27;6.50;99.90
14411;DHT22;7290;50.854;4.354;2022-12-07T01:13:55;6.40;99.90
14411;DHT22;7290;50.854;4.354;2022-12-07T01:16:24;6.40;99.90
14411;DHT22;7290;50.854;4.354;2022-12-07T01:18:53;6.50;99.90
14411;DHT22;7290;50.854;4.354;2022-12-07T01:21:21;6.70;99.90
14411;DHT22;7290;50.854;4.354;2022-12-07T01:23:49;6.70;99.90
14411;DHT22;7290;50.854;4.354;2022-12-07T01:26:17;6.60;99.90
14411;DHT22;7290;50.854;4.354;2022-12-07T01:28:44;6.60;99.90
14411;DHT22;7290;50.854;4.354;2022-12-07T01:31:14;6.50;99.90
14411;DHT22;7290;50.854;4.354;2022-12-07T01:33:42;6.50;99.90
14411;DHT22;7290;50.854;4.354;2022-12-07T01:36:13;6.50;99.90
14411;DHT22;7290;50.854;4.354;2022-12-07T01:38:40;6.50;99.90
14411;DHT22;7290;50.854;4.354;2022-12-07T01:41:06;6.50;99.90
14411;DHT22;7290;50.854;4.354;2022-12-07T01:43:33;6.60;99.90
14411;DHT22;7290;50.854;4.354;2022-12-07T01:46:00;6.70;99.90
14411;DHT22;7290;50.854;4.354;2022-12-07T01:48:30;6.60;99.90
14411;DHT22;7290;50.854;4.354;2022-12-07T01:51:01;6.60;99.90
14411;DHT22;7290;50.854;4.354;2022-12-07T01:53:29;6.60;99.90
14411;DHT22;7290;50.854;4.354;2022-12-07T01:55:56;6.60;99.90
14411;DHT22;7290;50.854;4.354;2022-12-07T01:58:24;6.70;99.90
14411;DHT22;7290;50.854;4.354;2022-12-07T02:00:50;6.70;99.90
14411;DHT22;7290;50.854;4.354;2022-12-07T02:03:19;6.70;99.90
14411;DHT22;7290;50.854;4.354;2022-12-07T02:05:49;6.60;99.90
14411;DHT22;7290;50.854;4.354;2022-12-07T02:08:16;6.60;99.90
14411;DHT22;7290;50.854;4.354;2022-12-07T02:10:43;6.50;99.90
14411;DHT22;7290;50.854;4.354;2022-12-07T02:13:13;6.40;99.90
14411;DHT22;7290;50.854;4.354;2022-12-07T02:15:56;6.50;99.90
14411;DHT22;7290;50.854;4.354;2022-12-07T02:18:32;6.40;99.90
14411;DHT22;7290;50.854;4.354;2022-12-07T02:21:07;6.50;99.90
14411;DHT22;7290;50.854;4.354;2022-12-07T02:29:36;6.40;99.90
14411;DHT22;7290;50.854;4.354;2022-12-07T02:32:08;6.70;99.90
14411;DHT22;7290;50.854;4.354;2022-12-07T02:34:42;6.70;99.90
14411;DHT22;7290;50.854;4.354;2022-12-07T02:37:16;6.80;99.90
14411;DHT22;7290;50.854;4.354;2022-12-07T02:39:48;6.80;99.90
14411;DHT22;7290;50.854;4.354;2022-12-07T02:42:19;6.60;99.90
14411;DHT22;7290;50.854;4.354;2022-12-07T02:44:48;6.50;99.90
14411;DHT22;7290;50.854;4.354;2022-12-07T02:47:17;6.50;99.90
14411;DHT22;7290;50.854;4.354;2022-12-07T02:49:43;6.50;99.90
14411;DHT22;7290;50.854;4.354;2022-12-07T02:52:09;6.50;99.90
14411;DHT22;7290;50.854;4.354;2022-12-07T02:54:35;6.60;99.90
14411;DHT22;7290;50.854;4.354;2022-12-07T02:57:10;6.80;99.90
14411;DHT22;7290;50.854;4.354;2022-12-07T02:59:50;6.60;99.90
14411;DHT22;7290;50.854;4.354;2022-12-07T03:02:25;6.40;99.90
14411;DHT22;7290;50.854;4.354;2022-12-07T03:05:03;6.30;99.90
14411;DHT22;7290;50.854;4.354;2022-12-07T03:07:39;6.30;99.90
14411;DHT22;7290;50.854;4.354;2022-12-07T03:10:14;6.30;99.90
14411;DHT22;7290;50.854;4.354;2022-12-07T03:12:45;6.20;99.90
14411;DHT22;7290;50.854;4.354;2022-12-07T03:15:14;6.20;99.90
14411;DHT22;7290;50.854;4.354;2022-12-07T03:17:43;6.20;99.90
14411;DHT22;7290;50.854;4.354;2022-12-07T03:20:12;6.20;99.90
14411;DHT22;7290;50.854;4.354;2022-12-07T03:22:40;6.20;99.90
14411;DHT22;7290;50.854;4.354;2022-12-07T03:25:10;6.20;99.90
14411;DHT22;7290;50.854;4.354;2022-12-07T03:27:40;6.20;99.90
14411;DHT22;7290;50.854;4.354;2022-12-07T03:30:11;6.10;99.90
14411;DHT22;7290;50.854;4.354;2022-12-07T03:32:41;6.20;99.90
14411;DHT22;7290;50.854;4.354;2022-12-07T03:35:12;6.30;99.90
14411;DHT22;7290;50.854;4.354;2022-12-07T03:37:45;6.20;99.90
14411;DHT22;7290;50.854;4.354;2022-12-07T03:40:17;6.20;99.90
14411;DHT22;7290;50.854;4.354;2022-12-07T03:42:46;6.20;99.90
14411;DHT22;7290;50.854;4.354;2022-12-07T03:45:12;6.20;99.90
14411;DHT22;7290;50.854;4.354;2022-12-07T03:47:45;6.20;99.90
14411;DHT22;7290;50.854;4.354;2022-12-07T03:50:17;6.20;99.90
14411;DHT22;7290;50.854;4.354;2022-12-07T03:52:49;6.10;99.90
14411;DHT22;7290;50.854;4.354;2022-12-07T03:55:22;6.20;99.90
14411;DHT22;7290;50.854;4.354;2022-12-07T03:57:53;6.20;99.90
14411;DHT22;7290;50.854;4.354;2022-12-07T04:00:21;6.30;99.90
14411;DHT22;7290;50.854;4.354;2022-12-07T04:02:51;6.40;99.90
14411;DHT22;7290;50.854;4.354;2022-12-07T04:05:18;6.40;99.90
14411;DHT22;7290;50.854;4.354;2022-12-07T04:07:44;6.60;99.90
14411;DHT22;7290;50.854;4.354;2022-12-07T04:10:10;6.40;99.90
14411;DHT22;7290;50.854;4.354;2022-12-07T04:12:36;6.30;99.90
14411;DHT22;7290;50.854;4.354;2022-12-07T04:15:03;6.30;99.90
14411;DHT22;7290;50.854;4.354;2022-12-07T04:17:29;6.40;99.90
14411;DHT22;7290;50.854;4.354;2022-12-07T04:19:56;6.40;99.90
14411;DHT22;7290;50.854;4.354;2022-12-07T04:22:22;6.30;99.90
14411;DHT22;7290;50.854;4.354;2022-12-07T04:24:48;6.20;99.90
14411;DHT22;7290;50.854;4.354;2022-12-07T04:27:14;6.10;99.90
14411;DHT22;7290;50.854;4.354;2022-12-07T04:29:40;6.20;99.90
14411;DHT22;7290;50.854;4.354;2022-12-07T04:32:06;6.20;99.90
14411;DHT22;7290;50.854;4.354;2022-12-07T04:34:32;6.20;99.90
14411;DHT22;7290;50.854;4.354;2022-12-07T04:36:59;6.10;99.90
14411;DHT22;7290;50.854;4.354;2022-12-07T04:39:27;6.00;99.90
14411;DHT22;7290;50.854;4.354;2022-12-07T04:41:54;6.00;99.90
14411;DHT22;7290;50.854;4.354;2022-12-07T04:44:20;6.00;99.90
14411;DHT22;7290;50.854;4.354;2022-12-07T04:46:47;6.10;99.90
14411;DHT22;7290;50.854;4.354;2022-12-07T04:49:14;6.10;99.90
14411;DHT22;7290;50.854;4.354;2022-12-07T04:51:41;6.10;99.90
14411;DHT22;7290;50.854;4.354;2022-12-07T04:54:08;6.00;99.90
14411;DHT22;7290;50.854;4.354;2022-12-07T04:56:34;6.10;99.90
14411;DHT22;7290;50.854;4.354;2022-12-07T04:59:01;6.10;99.90
14411;DHT22;7290;50.854;4.354;2022-12-07T05:01:27;6.10;99.90
14411;DHT22;7290;50.854;4.354;2022-12-07T05:03:54;6.10;99.90
14411;DHT22;7290;50.854;4.354;2022-12-07T05:06:20;6.00;99.90
14411;DHT22;7290;50.854;4.354;2022-12-07T05:08:46;6.10;99.90
14411;DHT22;7290;50.854;4.354;2022-12-07T05:11:14;6.10;99.90
14411;DHT22;7290;50.854;4.354;2022-12-07T05:14:01;6.10;99.90
14411;DHT22;7290;50.854;4.354;2022-12-07T05:16:27;6.20;99.90
14411;DHT22;7290;50.854;4.354;2022-12-07T05:18:53;6.20;99.90
14411;DHT22;7290;50.854;4.354;2022-12-07T05:21:19;6.10;99.90
14411;DHT22;7290;50.854;4.354;2022-12-07T05:23:45;6.00;99.90
14411;DHT22;7290;50.854;4.354;2022-12-07T05:26:11;5.90;99.90
14411;DHT22;7290;50.854;4.354;2022-12-07T05:28:38;5.90;99.90
14411;DHT22;7290;50.854;4.354;2022-12-07T05:31:04;6.00;99.90
14411;DHT22;7290;50.854;4.354;2022-12-07T05:33:30;5.90;99.90
14411;DHT22;7290;50.854;4.354;2022-12-07T05:35:56;5.90;99.90
14411;DHT22;7290;50.854;4.354;2022-12-07T05:38:23;6.00;99.90
14411;DHT22;7290;50.854;4.354;2022-12-07T05:40:50;5.90;99.90
14411;DHT22;7290;50.854;4.354;2022-12-07T05:43:16;5.90;99.90
14411;DHT22;7290;50.854;4.354;2022-12-07T05:45:42;5.90;99.90
14411;DHT22;7290;50.854;4.354;2022-12-07T05:48:09;5.80;99.90
14411;DHT22;7290;50.854;4.354;2022-12-07T05:50:35;5.90;99.90
14411;DHT22;7290;50.854;4.354;2022-12-07T05:53:01;5.90;99.90
14411;DHT22;7290;50.854;4.354;2022-12-07T05:55:27;6.00;99.90
14411;DHT22;7290;50.854;4.354;2022-12-07T05:57:53;6.10;99.90
14411;DHT22;7290;50.854;4.354;2022-12-07T06:00:37;6.00;99.90
14411;DHT22;7290;50.854;4.354;2022-12-07T06:03:04;5.90;99.90
14411;DHT22;7290;50.854;4.354;2022-12-07T06:05:30;5.80;99.90
14411;DHT22;7290;50.854;4.354;2022-12-07T06:07:56;5.80;99.90
14411;DHT22;7290;50.854;4.354;2022-12-07T06:10:22;6.00;99.90
14411;DHT22;7290;50.854;4.354;2022-12-07T06:12:48;6.10;99.90
14411;DHT22;7290;50.854;4.354;2022-12-07T06:15:14;6.10;99.90
14411;DHT22;7290;50.854;4.354;2022-12-07T06:17:40;6.10;99.90
14411;DHT22;7290;50.854;4.354;2022-12-07T06:20:08;6.00;99.90
14411;DHT22;7290;50.854;4.354;2022-12-07T06:22:34;5.90;99.90
14411;DHT22;7290;50.854;4.354;2022-12-07T06:25:00;6.00;99.90
14411;DHT22;7290;50.854;4.354;2022-12-07T06:27:27;6.00;99.90
14411;DHT22;7290;50.854;4.354;2022-12-07T06:29:56;6.00;99.90
14411;DHT22;7290;50.854;4.354;2022-12-07T06:32:22;6.00;99.90
14411;DHT22;7290;50.854;4.354;2022-12-07T06:34:48;6.00;99.90
14411;DHT22;7290;50.854;4.354;2022-12-07T06:37:15;6.00;99.90
14411;DHT22;7290;50.854;4.354;2022-12-07T06:39:41;6.10;99.90
14411;DHT22;7290;50.854;4.354;2022-12-07T06:42:07;6.00;99.90
14411;DHT22;7290;50.854;4.354;2022-12-07T06:44:33;6.10;99.90
14411;DHT22;7290;50.854;4.354;2022-12-07T06:47:01;6.20;99.90
14411;DHT22;7290;50.854;4.354;2022-12-07T06:49:28;6.20;99.90
14411;DHT22;7290;50.854;4.354;2022-12-07T06:51:54;6.10;99.90
14411;DHT22;7290;50.854;4.354;2022-12-07T06:54:21;6.20;99.90
14411;DHT22;7290;50.854;4.354;2022-12-07T06:56:47;6.10;99.90
14411;DHT22;7290;50.854;4.354;2022-12-07T06:59:14;6.10;99.90
14411;DHT22;7290;50.854;4.354;2022-12-07T07:01:40;6.10;99.90
14411;DHT22;7290;50.854;4.354;2022-12-07T07:04:06;6.20;99.90
14411;DHT22;7290;50.854;4.354;2022-12-07T07:06:32;6.30;99.90
14411;DHT22;7290;50.854;4.354;2022-12-07T07:08:58;6.50;99.90
14411;DHT22;7290;50.854;4.354;2022-12-07T07:11:25;6.60;99.90
14411;DHT22;7290;50.854;4.354;2022-12-07T07:13:51;6.70;99.90
14411;DHT22;7290;50.854;4.354;2022-12-07T07:16:18;6.60;99.90
14411;DHT22;7290;50.854;4.354;2022-12-07T07:18:44;6.60;99.90
14411;DHT22;7290;50.854;4.354;2022-12-07T07:21:10;6.50;99.90
14411;DHT22;7290;50.854;4.354;2022-12-07T07:23:36;6.40;99.90
14411;DHT22;7290;50.854;4.354;2022-12-07T07:26:02;6.50;99.90
14411;DHT22;7290;50.854;4.354;2022-12-07T07:28:29;6.40;99.90
14411;DHT22;7290;50.854;4.354;2022-12-07T07:30:55;6.40;99.90
14411;DHT22;7290;50.854;4.354;2022-12-07T07:33:21;6.20;99.90
14411;DHT22;7290;50.854;4.354;2022-12-07T07:35:47;6.10;99.90
14411;DHT22;7290;50.854;4.354;2022-12-07T07:38:13;6.10;99.90
14411;DHT22;7290;50.854;4.354;2022-12-07T07:40:40;6.10;99.90
14411;DHT22;7290;50.854;4.354;2022-12-07T07:43:06;6.10;99.90
14411;DHT22;7290;50.854;4.354;2022-12-07T07:45:33;6.30;99.90
14411;DHT22;7290;50.854;4.354;2022-12-07T07:47:59;6.40;99.90
14411;DHT22;7290;50.854;4.354;2022-12-07T07:50:25;6.30;99.90
14411;DHT22;7290;50.854;4.354;2022-12-07T07:52:51;6.30;99.90
14411;DHT22;7290;50.854;4.354;2022-12-07T07:55:17;6.30;99.90
14411;DHT22;7290;50.854;4.354;2022-12-07T07:57:43;6.30;99.90
14411;DHT22;7290;50.854;4.354;2022-12-07T08:00:12;6.30;99.90
14411;DHT22;7290;50.854;4.354;2022-12-07T08:02:39;6.30;99.90
14411;DHT22;7290;50.854;4.354;2022-12-07T08:05:06;6.30;99.90
14411;DHT22;7290;50.854;4.354;2022-12-07T08:07:33;6.30;99.90
14411;DHT22;7290;50.854;4.354;2022-12-07T08:09:59;6.30;99.90
14411;DHT22;7290;50.854;4.354;2022-12-07T08:12:25;6.30;99.90
14411;DHT22;7290;50.854;4.354;2022-12-07T08:14:51;6.30;99.90
14411;DHT22;7290;50.854;4.354;2022-12-07T08:17:17;6.30;99.90
14411;DHT22;7290;50.854;4.354;2022-12-07T08:19:44;6.20;99.90
14411;DHT22;7290;50.854;4.354;2022-12-07T08:22:10;6.20;99.90
14411;DHT22;7290;50.854;4.354;2022-12-07T08:24:36;6.10;99.90
14411;DHT22;7290;50.854;4.354;2022-12-07T08:27:02;6.10;99.90
14411;DHT22;7290;50.854;4.354;2022-12-07T08:29:29;6.10;99.90
14411;DHT22;7290;50.854;4.354;2022-12-07T08:31:55;6.20;99.90
14411;DHT22;7290;50.854;4.354;2022-12-07T08:34:22;6.20;99.90
14411;DHT22;7290;50.854;4.354;2022-12-07T08:36:48;6.00;99.90
14411;DHT22;7290;50.854;4.354;2022-12-07T08:39:14;6.00;99.90
14411;DHT22;7290;50.854;4.354;2022-12-07T08:41:43;6.00;99.90
14411;DHT22;7290;50.854;4.354;2022-12-07T08:44:09;6.00;99.90
14411;DHT22;7290;50.854;4.354;2022-12-07T08:46:38;6.10;99.90
14411;DHT22;7290;50.854;4.354;2022-12-07T08:49:09;6.20;99.90
14411;DHT22;7290;50.854;4.354;2022-12-07T08:51:37;6.30;99.90
14411;DHT22;7290;50.854;4.354;2022-12-07T08:54:09;6.30;99.90
14411;DHT22;7290;50.854;4.354;2022-12-07T08:56:36;6.40;99.90
14411;DHT22;7290;50.854;4.354;2022-12-07T08:59:04;6.50;99.90
14411;DHT22;7290;50.854;4.354;2022-12-07T09:01:30;6.60;99.90
14411;DHT22;7290;50.854;4.354;2022-12-07T09:03:56;6.60;99.90
14411;DHT22;7290;50.854;4.354;2022-12-07T09:06:22;6.70;99.90
14411;DHT22;7290;50.854;4.354;2022-12-07T09:08:51;6.60;99.90
14411;DHT22;7290;50.854;4.354;2022-12-07T09:11:20;6.80;99.90
14411;DHT22;7290;50.854;4.354;2022-12-07T09:13:46;6.90;99.90
14411;DHT22;7290;50.854;4.354;2022-12-07T09:16:13;6.80;99.90
14411;DHT22;7290;50.854;4.354;2022-12-07T09:18:39;7.00;99.90
14411;DHT22;7290;50.854;4.354;2022-12-07T09:21:05;7.00;99.90
14411;DHT22;7290;50.854;4.354;2022-12-07T09:23:31;6.80;99.90
14411;DHT22;7290;50.854;4.354;2022-12-07T09:25:59;6.70;99.90
14411;DHT22;7290;50.854;4.354;2022-12-07T09:28:25;6.80;99.90
14411;DHT22;7290;50.854;4.354;2022-12-07T09:30:52;6.90;99.90
14411;DHT22;7290;50.854;4.354;2022-12-07T09:33:18;6.90;99.90
14411;DHT22;7290;50.854;4.354;2022-12-07T09:35:44;6.80;99.90
14411;DHT22;7290;50.854;4.354;2022-12-07T09:38:11;6.90;99.90
14411;DHT22;7290;50.854;4.354;2022-12-07T09:40:37;7.20;99.90
14411;DHT22;7290;50.854;4.354;2022-12-07T09:43:03;7.40;99.90
14411;DHT22;7290;50.854;4.354;2022-12-07T09:45:34;7.40;99.90
14411;DHT22;7290;50.854;4.354;2022-12-07T09:48:02;7.50;99.90
14411;DHT22;7290;50.854;4.354;2022-12-07T09:50:29;7.60;99.90
14411;DHT22;7290;50.854;4.354;2022-12-07T09:53:05;7.40;99.90
14411;DHT22;7290;50.854;4.354;2022-12-07T09:55:33;7.30;99.90
14411;DHT22;7290;50.854;4.354;2022-12-07T09:58:01;7.30;99.90
14411;DHT22;7290;50.854;4.354;2022-12-07T10:00:27;7.30;99.90
14411;DHT22;7290;50.854;4.354;2022-12-07T10:02:56;7.40;99.90
14411;DHT22;7290;50.854;4.354;2022-12-07T10:05:25;7.50;99.90
14411;DHT22;7290;50.854;4.354;2022-12-07T10:07:52;7.50;99.90
14411;DHT22;7290;50.854;4.354;2022-12-07T10:10:23;7.50;99.90
14411;DHT22;7290;50.854;4.354;2022-12-07T10:12:57;7.50;99.90
14411;DHT22;7290;50.854;4.354;2022-12-07T10:15:23;7.40;99.90
14411;DHT22;7290;50.854;4.354;2022-12-07T10:17:51;7.30;99.90
14411;DHT22;7290;50.854;4.354;2022-12-07T10:20:21;7.10;99.90
14411;DHT22;7290;50.854;4.354;2022-12-07T10:23:00;7.20;99.90
14411;DHT22;7290;50.854;4.354;2022-12-07T10:25:29;7.20;99.90
14411;DHT22;7290;50.854;4.354;2022-12-07T10:27:58;7.10;99.90
14411;DHT22;7290;50.854;4.354;2022-12-07T10:30:25;7.10;99.90
14411;DHT22;7290;50.854;4.354;2022-12-07T10:32:51;7.30;99.90
14411;DHT22;7290;50.854;4.354;2022-12-07T10:35:24;7.60;99.90
14411;DHT22;7290;50.854;4.354;2022-12-07T10:37:51;7.60;99.90
14411;DHT22;7290;50.854;4.354;2022-12-07T10:40:39;7.70;99.90
14411;DHT22;7290;50.854;4.354;2022-12-07T10:43:15;7.70;99.90
14411;DHT22;7290;50.854;4.354;2022-12-07T10:48:42;7.50;99.90
14411;DHT22;7290;50.854;4.354;2022-12-07T10:51:18;7.60;99.90
14411;DHT22;7290;50.854;4.354;2022-12-07T10:53:56;7.60;99.90
14411;DHT22;7290;50.854;4.354;2022-12-07T10:56:42;7.50;99.90
14411;DHT22;7290;50.854;4.354;2022-12-07T10:59:39;7.60;99.90
14411;DHT22;7290;50.854;4.354;2022-12-07T11:02:20;7.60;99.90
14411;DHT22;7290;50.854;4.354;2022-12-07T11:04:59;7.80;99.90
14411;DHT22;7290;50.854;4.354;2022-12-07T11:07:38;7.80;99.90
14411;DHT22;7290;50.854;4.354;2022-12-07T11:10:10;7.90;99.90
14411;DHT22;7290;50.854;4.354;2022-12-07T11:12:50;8.10;99.90
14411;DHT22;7290;50.854;4.354;2022-12-07T11:15:24;8.00;99.90
14411;DHT22;7290;50.854;4.354;2022-12-07T11:17:56;8.00;99.90
14411;DHT22;7290;50.854;4.354;2022-12-07T11:20:35;8.30;99.90
14411;DHT22;7290;50.854;4.354;2022-12-07T11:23:08;8.50;99.90
14411;DHT22;7290;50.854;4.354;2022-12-07T11:25:41;8.50;99.90
14411;DHT22;7290;50.854;4.354;2022-12-07T11:28:20;8.50;99.90
14411;DHT22;7290;50.854;4.354;2022-12-07T11:30:53;8.50;99.90
14411;DHT22;7290;50.854;4.354;2022-12-07T11:33:27;8.40;99.90
14411;DHT22;7290;50.854;4.354;2022-12-07T11:36:01;8.00;99.90
14411;DHT22;7290;50.854;4.354;2022-12-07T11:38:38;8.20;99.90
14411;DHT22;7290;50.854;4.354;2022-12-07T11:41:09;8.50;99.90
14411;DHT22;7290;50.854;4.354;2022-12-07T11:43:49;9.40;99.90
14411;DHT22;7290;50.854;4.354;2022-12-07T11:46:17;10.20;99.90
14411;DHT22;7290;50.854;4.354;2022-12-07T11:48:46;10.60;99.90
14411;DHT22;7290;50.854;4.354;2022-12-07T11:51:13;11.00;99.90
14411;DHT22;7290;50.854;4.354;2022-12-07T11:53:46;11.80;99.90
14411;DHT22;7290;50.854;4.354;2022-12-07T11:56:16;11.30;99.90
14411;DHT22;7290;50.854;4.354;2022-12-07T11:58:48;11.50;99.90
14411;DHT22;7290;50.854;4.354;2022-12-07T12:01:22;12.20;99.90
14411;DHT22;7290;50.854;4.354;2022-12-07T12:03:56;12.70;99.90
14411;DHT22;7290;50.854;4.354;2022-12-07T12:06:23;13.20;99.90
14411;DHT22;7290;50.854;4.354;2022-12-07T12:08:54;13.10;99.90
14411;DHT22;7290;50.854;4.354;2022-12-07T12:11:35;12.50;99.90
14411;DHT22;7290;50.854;4.354;2022-12-07T12:14:29;11.40;99.90
14411;DHT22;7290;50.854;4.354;2022-12-07T12:17:15;10.40;99.90
14411;DHT22;7290;50.854;4.354;2022-12-07T12:20:00;10.10;99.90
14411;DHT22;7290;50.854;4.354;2022-12-07T12:22:33;10.00;99.90
14411;DHT22;7290;50.854;4.354;2022-12-07T12:25:05;9.70;99.90
14411;DHT22;7290;50.854;4.354;2022-12-07T12:27:33;9.40;99.90
14411;DHT22;7290;50.854;4.354;2022-12-07T12:30:02;9.10;99.90
14411;DHT22;7290;50.854;4.354;2022-12-07T12:32:37;8.80;99.90
14411;DHT22;7290;50.854;4.354;2022-12-07T12:35:29;8.70;99.90
14411;DHT22;7290;50.854;4.354;2022-12-07T12:41:06;9.30;99.90
14411;DHT22;7290;50.854;4.354;2022-12-07T12:43:47;9.50;99.90
14411;DHT22;7290;50.854;4.354;2022-12-07T12:46:53;9.40;99.90
14411;DHT22;7290;50.854;4.354;2022-12-07T12:52:48;9.10;99.90
14411;DHT22;7290;50.854;4.354;2022-12-07T12:55:18;9.10;99.90
14411;DHT22;7290;50.854;4.354;2022-12-07T12:57:48;9.00;99.90
14411;DHT22;7290;50.854;4.354;2022-12-07T13:00:34;9.00;99.90
14411;DHT22;7290;50.854;4.354;2022-12-07T13:03:00;9.00;99.90
14411;DHT22;7290;50.854;4.354;2022-12-07T13:05:28;9.10;99.90
14411;DHT22;7290;50.854;4.354;2022-12-07T13:08:00;9.20;99.90
14411;DHT22;7290;50.854;4.354;2022-12-07T13:10:39;9.30;99.90
14411;DHT22;7290;50.854;4.354;2022-12-07T13:16:40;9.20;99.90
14411;DHT22;7290;50.854;4.354;2022-12-07T13:22:43;8.90;99.90
14411;DHT22;7290;50.854;4.354;2022-12-07T13:25:18;8.70;99.90
14411;DHT22;7290;50.854;4.354;2022-12-07T13:27:56;8.70;99.90
14411;DHT22;7290;50.854;4.354;2022-12-07T13:30:23;9.00;99.90
14411;DHT22;7290;50.854;4.354;2022-12-07T13:32:54;9.10;99.90
14411;DHT22;7290;50.854;4.354;2022-12-07T13:35:32;8.90;99.90
14411;DHT22;7290;50.854;4.354;2022-12-07T13:38:01;9.00;99.90
14411;DHT22;7290;50.854;4.354;2022-12-07T13:40:28;9.10;99.90
14411;DHT22;7290;50.854;4.354;2022-12-07T13:42:57;9.10;99.90
14411;DHT22;7290;50.854;4.354;2022-12-07T13:45:25;9.00;99.90
14411;DHT22;7290;50.854;4.354;2022-12-07T13:48:14;8.90;99.90
14411;DHT22;7290;50.854;4.354;2022-12-07T13:50:41;8.70;99.90
14411;DHT22;7290;50.854;4.354;2022-12-07T13:53:12;8.80;99.90
14411;DHT22;7290;50.854;4.354;2022-12-07T13:55:44;8.80;99.90
14411;DHT22;7290;50.854;4.354;2022-12-07T13:58:11;8.90;99.90
14411;DHT22;7290;50.854;4.354;2022-12-07T14:00:39;9.10;99.90
14411;DHT22;7290;50.854;4.354;2022-12-07T14:03:27;9.00;99.90
14411;DHT22;7290;50.854;4.354;2022-12-07T14:06:06;8.90;99.90
14411;DHT22;7290;50.854;4.354;2022-12-07T14:08:32;8.90;99.90
14411;DHT22;7290;50.854;4.354;2022-12-07T14:10:59;8.70;99.90
14411;DHT22;7290;50.854;4.354;2022-12-07T14:13:30;8.50;99.90
14411;DHT22;7290;50.854;4.354;2022-12-07T14:15:57;8.50;99.90
14411;DHT22;7290;50.854;4.354;2022-12-07T14:18:28;8.50;99.90
14411;DHT22;7290;50.854;4.354;2022-12-07T14:21:03;8.40;99.90
14411;DHT22;7290;50.854;4.354;2022-12-07T14:23:30;8.30;99.90
14411;DHT22;7290;50.854;4.354;2022-12-07T14:26:06;8.30;99.90
14411;DHT22;7290;50.854;4.354;2022-12-07T14:28:34;8.00;99.90
14411;DHT22;7290;50.854;4.354;2022-12-07T14:31:01;8.00;99.90
14411;DHT22;7290;50.854;4.354;2022-12-07T14:33:28;7.80;99.90
14411;DHT22;7290;50.854;4.354;2022-12-07T14:35:55;7.80;99.90
14411;DHT22;7290;50.854;4.354;2022-12-07T14:38:24;7.80;99.90
14411;DHT22;7290;50.854;4.354;2022-12-07T14:40:50;7.90;99.90
14411;DHT22;7290;50.854;4.354;2022-12-07T14:43:17;7.90;99.90
14411;DHT22;7290;50.854;4.354;2022-12-07T14:45:44;8.00;99.90
14411;DHT22;7290;50.854;4.354;2022-12-07T14:48:11;8.10;99.90
14411;DHT22;7290;50.854;4.354;2022-12-07T14:50:41;7.70;99.90
14411;DHT22;7290;50.854;4.354;2022-12-07T14:53:11;7.80;99.90
14411;DHT22;7290;50.854;4.354;2022-12-07T14:55:38;7.80;99.90
14411;DHT22;7290;50.854;4.354;2022-12-07T14:58:04;7.80;99.90
14411;DHT22;7290;50.854;4.354;2022-12-07T15:00:30;7.80;99.90
14411;DHT22;7290;50.854;4.354;2022-12-07T15:02:57;7.80;99.90
14411;DHT22;7290;50.854;4.354;2022-12-07T15:05:23;8.00;99.90
14411;DHT22;7290;50.854;4.354;2022-12-07T15:07:50;8.00;99.90
14411;DHT22;7290;50.854;4.354;2022-12-07T15:10:19;8.10;99.90
14411;DHT22;7290;50.854;4.354;2022-12-07T15:12:45;8.10;99.90
14411;DHT22;7290;50.854;4.354;2022-12-07T15:15:11;8.10;99.90
14411;DHT22;7290;50.854;4.354;2022-12-07T15:17:37;8.20;99.90
14411;DHT22;7290;50.854;4.354;2022-12-07T15:20:05;8.10;99.90
14411;DHT22;7290;50.854;4.354;2022-12-07T15:22:31;8.20;99.90
14411;DHT22;7290;50.854;4.354;2022-12-07T15:24:58;8.30;99.90
14411;DHT22;7290;50.854;4.354;2022-12-07T15:27:24;8.10;99.90
14411;DHT22;7290;50.854;4.354;2022-12-07T15:29:50;7.90;99.90
14411;DHT22;7290;50.854;4.354;2022-12-07T15:32:16;7.90;99.90
14411;DHT22;7290;50.854;4.354;2022-12-07T15:34:42;7.90;99.90
14411;DHT22;7290;50.854;4.354;2022-12-07T15:37:08;8.00;99.90
14411;DHT22;7290;50.854;4.354;2022-12-07T15:39:36;7.90;99.90
14411;DHT22;7290;50.854;4.354;2022-12-07T15:42:03;8.00;99.90
14411;DHT22;7290;50.854;4.354;2022-12-07T15:44:29;8.10;99.90
14411;DHT22;7290;50.854;4.354;2022-12-07T15:47:13;8.10;99.90
14411;DHT22;7290;50.854;4.354;2022-12-07T15:49:39;7.90;99.90
14411;DHT22;7290;50.854;4.354;2022-12-07T15:52:05;7.80;99.90
14411;DHT22;7290;50.854;4.354;2022-12-07T15:54:31;7.80;99.90
14411;DHT22;7290;50.854;4.354;2022-12-07T15:56:58;7.70;99.90
14411;DHT22;7290;50.854;4.354;2022-12-07T15:59:26;7.70;99.90
14411;DHT22;7290;50.854;4.354;2022-12-07T16:01:52;7.80;99.90
14411;DHT22;7290;50.854;4.354;2022-12-07T16:04:18;7.80;99.90
14411;DHT22;7290;50.854;4.354;2022-12-07T16:06:45;7.90;99.90
14411;DHT22;7290;50.854;4.354;2022-12-07T16:09:11;7.90;99.90
14411;DHT22;7290;50.854;4.354;2022-12-07T16:11:37;7.90;99.90
14411;DHT22;7290;50.854;4.354;2022-12-07T16:14:03;7.90;99.90
14411;DHT22;7290;50.854;4.354;2022-12-07T16:16:30;7.90;99.90
14411;DHT22;7290;50.854;4.354;2022-12-07T16:18:57;8.00;99.90
14411;DHT22;7290;50.854;4.354;2022-12-07T16:21:23;8.00;99.90
14411;DHT22;7290;50.854;4.354;2022-12-07T16:23:49;8.00;99.90
14411;DHT22;7290;50.854;4.354;2022-12-07T16:26:18;8.00;99.90
14411;DHT22;7290;50.854;4.354;2022-12-07T16:28:45;7.90;99.90
14411;DHT22;7290;50.854;4.354;2022-12-07T16:31:13;7.70;99.90
14411;DHT22;7290;50.854;4.354;2022-12-07T16:33:41;7.70;99.90
14411;DHT22;7290;50.854;4.354;2022-12-07T16:36:09;7.80;99.90